• Join FlightAware (Why Join?)
  • Login
  • US Flag 
08:25PM EDT


 

Airport Tracker/Info


-or-


 

Live Flight TrackerFlight Track Log ✈ AWE3418 ✈ 17-Apr-2013 ✈ KPHL - KMHT

Flight Track Log - Related Links

Times and Time Zones

All times are in EDT time to prevent confusion due to time zone crossing. See the AWE3418 flight status page for this flight to view local times or setup timezone preferences in your user account.

Time Position Orientation Groundspeed Altitude Reporting Facility
EDT Latitude Longitude Course Direction KTS MPH feet Rate Location/Type
07:22PM 39.8511 -75.2883 37° Northeast 186 214 1,100  Level FAA TRACON SMA TRACON (SMA)
07:23PM 39.8367 -75.3014 215° Southwest 201 231 1,600 1,500 Climbing FAA TRACON SMA TRACON (SMA)
07:23PM 39.8208 -75.3156 214° Southwest 210 242 2,100 1,800 Climbing FAA TRACON SMA TRACON (SMA)
07:23PM 39.8028 -75.3317 214° Southwest 239 275 2,800 2,220 Climbing FAA TRACON SMA TRACON (SMA)
07:24PM 39.7794 -75.3525 214° Southwest 260 299 3,600 2,520 Climbing FAA TRACON SMA TRACON (SMA)
07:24PM 39.7594 -75.3503 175° South 275 316 4,500 2,700 Climbing FAA TRACON SMA TRACON (SMA)
07:24PM 39.7408 -75.3281 137° Southeast 277 319 5,400 2,520 Climbing FAA TRACON SMA TRACON (SMA)
07:25PM 39.9653 -74.5347 37° Northeast  Level FlightAware Approximate
07:25PM 39.7406 -75.2897 91° East 284 327 6,200  Level FAA TRACON SMA TRACON (SMA)
07:25PM 39.7469 -75.2614 74° East 303 349 6,800 2,580 Climbing FAA TRACON SMA TRACON (SMA)
07:25PM 39.7497 -75.2261 84° East 298 343 7,900 3,120 Climbing FAA TRACON SMA TRACON (SMA)
07:26PM 40.0946 -74.4054 37° Northeast  Level FlightAware Approximate
07:26PM 39.7536 -75.1850 83° East 300 345 8,900  Level FAA TRACON SMA TRACON (SMA)
07:26PM 39.7567 -75.1525 83° East 304 350 9,600 2,460 Climbing FAA TRACON SMA TRACON (SMA)
07:26PM 39.7597 -75.1103 85° East 309 356 10,600 2,760 Climbing FAA TRACON SMA TRACON (SMA)
07:27PM 40.2173 -74.2827 37° Northeast  Level FlightAware Approximate
07:27PM 39.7633 -75.0736 83° East 316 364 11,400  Level FAA TRACON SMA TRACON (SMA)
07:27PM 39.7664 -75.0381 84° East 321 369 11,900 720 Climbing FAA TRACON SMA TRACON (SMA)
07:27PM 39.7703 -74.9972 83° East 325 374 11,900  Level FAA TRACON SMA TRACON (SMA)
07:28PM 40.3468 -74.1532 37° Northeast  Level FlightAware Approximate
07:28PM 39.7733 -74.9569 84° East 326 375 11,900  Level FAA TRACON SMA TRACON (SMA)
07:28PM 39.7761 -74.9242 84° East 325 374 11,900 120 Level FAA TRACON SMA TRACON (SMA)
07:28PM 39.7794 -74.8861 83° East 325 374 12,000 1,800 Climbing FAA TRACON SMA TRACON (SMA)
07:29PM 39.7833 -74.8397 84° East 329 379 13,100 3,000 Climbing FAA TRACON SMA TRACON (SMA)
07:29PM 39.7861 -74.8033 84° East 328 377 14,000 2,700 Climbing FAA TRACON SMA TRACON (SMA)
07:29PM 39.7900 -74.7594 83° East 329 379 14,900 2,400 Climbing FAA TRACON SMA TRACON (SMA)
07:30PM 39.7983 -74.7231 73° East 326 375 15,600 2,100 Climbing FAA TRACON SMA TRACON (SMA)
07:30PM 39.8156 -74.6953 51° Northeast 325 374 16,300 2,220 Climbing FAA TRACON SMA TRACON (SMA)
07:30PM 39.8428 -74.6683 37° Northeast 312 359 17,100 2,100 Climbing FAA TRACON SMA TRACON (SMA)
07:31PM 39.8656 -74.6461 37° Northeast 328 377 17,700 1,200 Climbing FAA TRACON SMA TRACON (SMA)
07:31PM 39.8825 -74.6297 37° Northeast 327 376 17,900 1,500 Climbing FAA TRACON SMA TRACON (SMA)
07:33PM 40.0517 -74.4642 37° Northeast 345 397 21,700 1,680 Climbing New York Center
07:34PM 40.1311 -74.3869 37° Northeast 350 403 23,400 1,500 Climbing New York Center
07:35PM 40.2106 -74.3069 38° Northeast 350 403 24,800 1,380 Climbing New York Center
07:36PM 40.3039 -74.2572 22° Northeast 350 403 26,200 1,680 Climbing New York Center
07:37PM 40.3931 -74.2047 24° Northeast 350 403 28,200 1,320 Climbing New York Center
07:38PM 40.4842 -74.1519 24° Northeast 350 403 29,000 240 Climbing New York Center
07:40PM 40.6550 -74.0514 24° Northeast 337 388 29,000  Level Boston Center
07:41PM 40.7347 -74.0122 20° North 337 388 29,000  Level Boston Center
07:42PM 40.8269 -73.9817 14° North 337 388 29,000  Level Boston Center
07:43PM 40.9228 -73.9756 North 337 388 29,000  Level Boston Center
07:44PM 41.0333 -73.9644 North 366 421 29,000  Level Boston Center
07:45PM 41.1419 -73.9533 North 382 440 29,000  Level Boston Center
07:46PM 41.2483 -73.9419 North 388 447 29,000  Level Boston Center
07:47PM 41.3569 -73.9333 North 388 447 29,000  Level Boston Center
07:48PM 41.4653 -73.9222 North 383 441 29,000  Level Boston Center
07:49PM 41.5717 -73.9108 North 388 447 29,000  Level Boston Center
07:50PM 41.6803 -73.9022 North 388 447 29,000  Level Boston Center
07:51PM 41.7931 -73.8908 North 388 447 29,000  Level Boston Center
07:52PM 41.8953 -73.8847 North 380 437 29,000  Level Boston Center
07:53PM 42.0036 -73.8761 North 380 437 29,000  Level Boston Center
07:54PM 42.1044 -73.8197 23° Northeast 385 443 29,000 -480 Level Boston Center
07:55PM 42.1769 -73.6783 55° Northeast 385 443 28,100 -1,500 Descending Boston Center
07:56PM 42.2325 -73.5533 59° Northeast 390 449 26,100 -1,920 Descending Boston Center
07:57PM 42.2942 -73.4169 59° Northeast 390 449 24,300 -2,040 Descending Boston Center
07:58PM 42.3472 -73.2969 59° Northeast 366 421 22,100 -2,100 Descending Boston Center
07:59PM 42.4000 -73.1822 58° Northeast 361 415 20,100 -1,560 Descending Boston Center
08:00PM 42.4467 -73.0761 59° Northeast 343 395 19,000 -600 Descending Boston Center
08:01PM 42.4992 -72.9611 58° Northeast 342 394 19,000  Level Boston Center
08:02PM 42.5433 -72.8600 59° Northeast 347 399 19,000  Level Boston Center
08:03PM 42.6000 -72.7333 59° Northeast 347 399 19,000 -540 Level Boston Center
08:04PM 42.6503 -72.6208 59° Northeast 347 399 18,000 -1,440 Descending Boston Center
08:05PM 42.7006 -72.5078 59° Northeast 342 394 16,200 -1,680 Descending Boston Center
08:06PM 42.7464 -72.4033 59° Northeast 337 388 14,700 -1,440 Descending Boston Center
08:07PM 42.7922 -72.2986 59° Northeast 332 382 13,300 -1,440 Descending Boston Center
08:08PM 42.8044 -72.1742 82° East 322 371 11,900 -1,560 Descending Boston Center
08:09PM 42.8144 -72.0494 84° East 327 376 10,300 -1,440 Descending Boston Center
08:10PM 42.8203 -71.9447 86° East 322 371 9,100 -900 Descending Boston Center
08:11PM 42.8217 -71.8203 89° East 304 350 8,500 -1,020 Descending Boston Center
08:12PM 42.8128 -71.7211 97° East 304 350 7,100 -1,320 Descending Boston Center
08:13PM 42.8036 -71.6053 96° East 281 323 5,900 -1,080 Descending Boston Center
08:14PM 42.7969 -71.5289 97° East 247 284 5,000 -1,020 Descending Boston Center
08:15PM 42.7692 -71.4417 113° Southeast 224 258 4,000 -600 Descending Boston Center
08:16PM 42.7497 -71.3825 114° Southeast 201 231 3,900 -540 Descending Boston Center
08:17PM 42.7786 -71.3539 36° Northeast 139 160 3,000 -720 Descending Boston Center
08:18PM 42.8183 -71.3703 343° North 129 148 2,500 -660 Descending Boston Center
08:19PM 42.8561 -71.3892 340° North 134 154 1,700 -780 Descending Boston Center
08:20PM 42.8833 -71.4058 336° Northwest 124 143 1,000 -720 Descending Boston Center
08:21PM 42.9169 -71.4281 334° Northwest 118 136 300 -720 Descending Boston Center